AirNav   ATP
 
 1068 users online  

MY26 Minnesota Valley Health Center Heliport
Le Sueur, Minnesota, USA

GOING TO LE SUEUR?


FAA INFORMATION EFFECTIVE 20 JULY 2017

Location

FAA Identifier: MY26
Lat/Long: 44-27-11.7727N / 093-54-56.3704W
44-27.196212N / 093-54.939507W
44.4532702 / -93.9156584
(estimated)
Elevation: 839 ft. / 256 m (estimated)
Variation: 02E (2000)
From city: 1 mile SE of LE SUEUR, MN
Time zone: UTC -5 (UTC -6 during Standard Time)
Zip code: 56058

Heliport Operations

Heliport use: Private use. Permission required prior to landing
Activation date: 11/2002
Control tower: no
ARTCC: MINNEAPOLIS CENTER
FSS: PRINCETON FLIGHT SERVICE STATION
Attendance: UNATNDD
Wind indicator: yes
Segmented circle: no
Lights: SS-SR

Heliport Communications

WX AWOS-3PT at MKT (14 nm S): 118.175 (507-625-3726)
WX AWOS-3 at GYL (19 nm N): 119.625 (320-864-5830)

Nearby radio navigation aids

VOR radial/distance  VOR name  Freq  Var
MKTr352/14.0MANKATO VOR/DME110.8007E
FOWr301/27.8HALFWAY VOR/DME111.2002E
FCMr221/30.1FLYING CLOUD VOR/DME117.7001E
FGTr245/33.1FARMINGTON VORTAC115.7006E
MSPr225/39.3MINNEAPOLIS VOR/DME115.3002E

 
NDB name  Hdg/Dist  Freq  Var  ID
GLENCOE155/19.840703EGYL --. -.-- .-..
ST JAMES043/39.226001EJYG .--- -.-- --.

Heliport Services

Runway Information

Helipad H1

Dimensions: 50 x 50 ft. / 15 x 15 m
Surface: concrete
Runway edge lights: FLD
Latitude: 44-27.196212N
Longitude: 093-54.939507W
Elevation: 839.0 ft.
Traffic pattern: leftleft

Heliport Ownership and Management from official FAA records

Ownership: Privately-owned
Owner: CITY OF LE SUEUR
621 S 4TH ST
LE SUEUR, MN 56058
Phone (507) 665-3375
Manager: RUSS LAWRENCE
621 S 4TH ST
LE SUEUR, MN 56058
Phone (507) 665-3375
RUSS LAWRENCE 621 S. 4TH ST LE SUEUR, MN 56058 612-669-8091

Instrument Procedures

There are no published instrument procedures at MY26.

Some nearby airports with instrument procedures:

KMKT - Mankato Regional Airport (14 nm S)
KGYL - Glencoe Municipal Airport (19 nm N)
KULM - New Ulm Municipal Airport (26 nm W)
KFBL - Faribault Municipal Airport (27 nm E)
KACQ - Waseca Municipal Airport (28 nm SE)
 
Loc | Ops | Rwys | IFR | FBO | Links
Com | Nav | Svcs | Stats | Notes


 
Area around MY26 (Minnesota Valley Health Center Heliport)
 
Road maps at: MapQuest Bing Google
 
Aerial photo
No photo
 
Sectional chart

 
Airport distance calculator
Flying to Minnesota Valley Health Center Heliport? Find the distance to fly.

From to MY26

Sunrise and sunset
Times for 26-Jul-2017
 Local
(UTC-5)
 Zulu
(UTC)
Morning civil twilight05:2310:23
Sunrise05:5710:57
Sunset20:4701:47
Evening civil twilight21:2102:21

Current date and time
Zulu (UTC)  27-Jul-2017 00:13:51
Local (UTC-5)  26-Jul-2017 19:13:51
 
METAR
KMKT 
14nm S 
262356Z AUTO 35009KT 10SM CLR 26/18 A3000 RMK AO2 SLP154 60000 T02610178 10278 20233 55004
KGYL 
19nm N 
262355Z AUTO 32006KT 10SM CLR 27/19 A3000 RMK AO2 T02680193 10275 20265
KULM 
26nm W 
262354Z AUTO 34007KT 10SM CLR 26/16 A3001 RMK AO2
KFBL 
27nm E 
262354Z AUTO 33005KT 10SM CLR 26/19 A2999 RMK AO2
KACQ 
28nm SE 
262353Z AUTO 34006KT 10SM CLR 25/18 A3001 RMK AO2
TAF
KMKT 
14nm S 
261736Z 2618/2718 32005KT P6SM SCT050 TEMPO 2618/2620 BKN015 FM270100 02004KT P6SM SKC FM271400 02006KT P6SM SCT050
NOTAMs
Click for the latest NOTAMs
NOTAMs are issued by the DoD/FAA and will open in a separate window not controlled by AirNav.

 

 
 

Would you like to see your business listed on this page?

 If your business provides an interesting product or service to pilots, flight crews, aircraft, or users of the Minnesota Valley Health Center Heliport, you should consider listing it here.  To start the listing process, click on the button below
 
Add a business
 

Other Pages about Minnesota Valley Health Center Heliport

Update a link
 
Copyright © AirNav, LLC. All rights reserved. Privacy Policy  Contact